Tenkaku — JM6537 — position and weather

sailwx.info

Track history (hours):
 
Tides and Currents Weather Stations Pressure Air Temp Water Temp Dewpoint Dewpoint Depression Visibility Wind Speed Wind Dir Waves Ship Positions

Tenkaku

Last reported at 2017-Oct-17 06:48 UTC. Time now 2017-Oct-18 20:34 UTC.
Position N 34°57' E 139°44'.

Length 80 m; draft 5 m.

Type: Cargo ship. MMSI: 431600647.

Date/timePositionNaut miles runAvg speedWind from/ knotsBaromVisibWave heightAir tempDewpointWater temp
2017-Oct-17 06:48N 34°57' E 139°44'411.6
2017-Oct-17 06:30N 35°00' E 139°44'510.7
2017-Oct-17 06:00N 35°05' E 139°46'510.8
2017-Oct-17 05:30N 35°11' E 139°46'510.6
2017-Oct-17 05:00N 35°16' E 139°46'510.7
2017-Oct-17 04:30N 35°21' E 139°43'510.0
2017-Oct-17 04:00N 35°25' E 139°45'5 9.8
2017-Oct-17 03:30N 35°22' E 139°50'1 2.1
2017-Oct-17 03:00N 35°22' E 139°51'0 0.1
2017-Oct-17 02:30N 35°22' E 139°51'0 0.0
2017-Oct-17 02:00N 35°22' E 139°51'0 0.0
2017-Oct-17 01:30N 35°22' E 139°51'0 0.0
2017-Oct-17 01:00N 35°22' E 139°51'0 0.0
2017-Oct-17 00:30N 35°22' E 139°51'0 0.0
2017-Oct-17 00:00N 35°22' E 139°51'0 0.0
2017-Oct-16 23:30N 35°22' E 139°51'0 0.0
2017-Oct-16 23:00N 35°22' E 139°51'0 0.0
2017-Oct-16 22:30N 35°22' E 139°51'0 0.9
2017-Oct-16 22:00N 35°22' E 139°50'1 1.2
2017-Oct-16 21:30N 35°22' E 139°49'0 0.0
2017-Oct-16 21:00N 35°22' E 139°49'0 0.0
2017-Oct-16 20:30N 35°22' E 139°49'0 0.0
2017-Oct-16 20:00N 35°22' E 139°49'0 0.0
2017-Oct-16 19:30N 35°22' E 139°49'0 0.0
2017-Oct-16 19:00N 35°22' E 139°49'0 0.0
2017-Oct-16 18:30N 35°22' E 139°49'0 0.0
2017-Oct-16 18:00N 35°22' E 139°49'0 0.0
2017-Oct-16 17:30N 35°22' E 139°49'0 0.0
2017-Oct-16 17:00N 35°22' E 139°49'0 0.0
2017-Oct-16 16:30N 35°22' E 139°49'0 0.0
2017-Oct-16 16:00N 35°22' E 139°49'0 0.0
2017-Oct-16 15:30N 35°22' E 139°49'0 0.0
2017-Oct-16 15:00N 35°22' E 139°49'0 0.0
2017-Oct-16 14:30N 35°22' E 139°49'0 0.0
2017-Oct-16 13:30N 35°22' E 139°49'0 0.0
2017-Oct-16 13:00N 35°22' E 139°49'0 0.0
2017-Oct-16 12:30N 35°22' E 139°49'0 0.0
2017-Oct-16 12:00N 35°22' E 139°49'0 0.0
2017-Oct-16 11:30N 35°22' E 139°49'0 0.0
2017-Oct-16 11:00N 35°22' E 139°49'0 0.0
2017-Oct-16 10:30N 35°22' E 139°49'0 0.0
2017-Oct-16 10:00N 35°22' E 139°49'0 0.1
2017-Oct-16 09:30N 35°22' E 139°49'0 0.0
2017-Oct-16 09:00N 35°22' E 139°49'0 0.0
2017-Oct-16 08:30N 35°22' E 139°49'3 6.0
2017-Oct-16 08:00N 35°25' E 139°49'612.3
2017-Oct-16 07:30N 35°31' E 139°51'5 0.8
2017-Oct-16 01:08N 35°35' E 139°47'1 7.9
2017-Oct-16 00:59N 35°34' E 139°48'3 6.5
2017-Oct-16 00:30N 35°34' E 139°52'0 0.1
2017-Oct-16 00:00N 35°34' E 139°52'0 0.0
2017-Oct-15 23:30N 35°34' E 139°52'0 0.0
2017-Oct-15 23:00N 35°34' E 139°52'0 0.0
2017-Oct-15 22:30N 35°34' E 139°52'0 0.0
2017-Oct-15 22:00N 35°34' E 139°52'0 0.0
2017-Oct-15 21:30N 35°34' E 139°52'0 0.0
2017-Oct-15 21:00N 35°34' E 139°52'0 0.0
2017-Oct-15 20:30N 35°34' E 139°52'0 0.0
2017-Oct-15 20:00N 35°34' E 139°52'0 0.0
2017-Oct-15 19:30N 35°34' E 139°52'0 0.0
2017-Oct-15 19:00N 35°34' E 139°52'0 0.0
2017-Oct-15 18:30N 35°34' E 139°52'0 0.0
2017-Oct-15 18:00N 35°34' E 139°52'0 0.0
2017-Oct-15 17:30N 35°34' E 139°52'0 0.0
2017-Oct-15 17:00N 35°34' E 139°52'0 0.0
2017-Oct-15 16:30N 35°34' E 139°52'0 0.0
2017-Oct-15 16:00N 35°34' E 139°52'0 0.0
2017-Oct-15 15:30N 35°34' E 139°52'0 0.1
2017-Oct-15 15:00N 35°34' E 139°52'0 0.0
2017-Oct-15 14:00N 35°34' E 139°52'0 0.0
2017-Oct-15 13:30N 35°34' E 139°52'0 0.0
2017-Oct-15 13:00N 35°34' E 139°52'0 0.0
2017-Oct-15 12:30N 35°34' E 139°52'3 6.8
2017-Oct-15 12:00N 35°31' E 139°52'510.2
2017-Oct-15 11:30N 35°26' E 139°49'510.2
2017-Oct-15 11:00N 35°22' E 139°45'5 9.5
2017-Oct-15 10:30N 35°17' E 139°45'5 9.5
2017-Oct-15 10:00N 35°13' E 139°47'510.0
2017-Oct-15 09:30N 35°08' E 139°46'510.6
2017-Oct-15 09:00N 35°03' E 139°44'5 9.7
2017-Oct-15 08:30N 34°58' E 139°43'6 9.0
2017-Oct-15 07:50N 34°53' E 139°47'  
2017-Oct-10 21:08N 35°22' E 139°49'0 0.0
2017-Oct-10 20:47N 35°22' E 139°49'0 0.0
2017-Oct-10 16:10N 35°22' E 139°49'0 0.0
2017-Oct-10 15:56N 35°22' E 139°49'0 0.0
2017-Oct-10 09:51N 35°22' E 139°49'0 0.1
2017-Oct-10 09:29N 35°22' E 139°49'0 0.0
2017-Oct-10 07:29N 35°22' E 139°49'4 8.3
2017-Oct-10 07:00N 35°25' E 139°46'611.1
2017-Oct-10 06:30N 35°28' E 139°40'1 1.9
2017-Oct-10 06:00N 35°28' E 139°39'0 0.0
2017-Oct-10 05:30N 35°28' E 139°39'0 0.0
2017-Oct-10 05:00N 35°28' E 139°39'0 0.0
2017-Oct-10 04:30N 35°28' E 139°39'0 0.0
2017-Oct-10 04:00N 35°28' E 139°39'0 0.0
2017-Oct-10 03:30N 35°28' E 139°39'0 0.0
2017-Oct-10 03:00N 35°28' E 139°39'0 0.0
2017-Oct-10 02:30N 35°28' E 139°39'0 0.0
2017-Oct-10 02:00N 35°28' E 139°39'2 3.8
2017-Oct-10 01:30N 35°27' E 139°41'4 8.0
2017-Oct-10 01:00N 35°24' E 139°45'0 0.0
2017-Oct-10 00:30N 35°24' E 139°45'0 0.0
2017-Oct-10 00:00N 35°24' E 139°45'0 0.0
2017-Oct-09 23:30N 35°24' E 139°45'0 0.1
2017-Oct-09 23:00N 35°24' E 139°45'0 0.1
2017-Oct-09 22:30N 35°24' E 139°45'0 0.0
2017-Oct-09 16:31N 35°24' E 139°45'0 0.0
2017-Oct-09 16:29N 35°24' E 139°45'0 0.0
2017-Oct-09 16:00N 35°24' E 139°45'0 0.0
2017-Oct-09 15:25N 35°24' E 139°45'0 0.0
2017-Oct-09 12:41N 35°24' E 139°45'0 0.0
2017-Oct-09 12:30N 35°24' E 139°45'0 0.0
2017-Oct-09 12:00N 35°24' E 139°45'0 0.0
2017-Oct-09 11:30N 35°24' E 139°45'0 0.0
2017-Oct-09 10:58N 35°24' E 139°45'0 0.0
2017-Oct-09 10:28N 35°24' E 139°45'0 0.0
2017-Oct-09 05:20N 35°24' E 139°45'0 0.0
2017-Oct-09 05:00N 35°24' E 139°45'0 0.0
2017-Oct-09 04:26N 35°24' E 139°45'0 0.0
2017-Oct-09 03:17N 35°24' E 139°45'0 0.0
2017-Oct-09 02:59N 35°24' E 139°45'0 0.0
2017-Oct-09 02:15N 35°24' E 139°45'0 0.0
2017-Oct-09 02:00N 35°24' E 139°45'0 0.0
2017-Oct-09 01:19N 35°24' E 139°45'0 0.0
2017-Oct-09 00:55N 35°24' E 139°45'3 5.1
2017-Oct-09 00:21N 35°22' E 139°43'4 9.8
2017-Oct-08 23:59N 35°18' E 139°44'5 9.9
2017-Oct-08 23:30N 35°14' E 139°47'510.9
2017-Oct-08 23:00N 35°08' E 139°46'611.6
2017-Oct-08 22:30N 35°03' E 139°45'510.4
2017-Oct-08 21:59N 34°57' E 139°44'  
Track history (hours):
 
Tides and Currents Weather Stations Pressure Air Temp Water Temp Dewpoint Dewpoint Depression Visibility Wind Speed Wind Dir Waves Ship Positions

Tenkaku

Last reported at 2017-Oct-17 06:48 UTC. Time now 2017-Oct-18 20:34 UTC.
Position N 34°57' E 139°44'.

Length 80 m; draft 5 m.

Type: Cargo ship. MMSI: 431600647.

Date/timePositionNaut miles runAvg speedWind from/ knotsBaromVisibWave heightAir tempDewpointWater temp
2017-Oct-17 06:48N 34°57' E 139°44'411.6
2017-Oct-17 06:30N 35°00' E 139°44'510.7
2017-Oct-17 06:00N 35°05' E 139°46'510.8
2017-Oct-17 05:30N 35°11' E 139°46'510.6
2017-Oct-17 05:00N 35°16' E 139°46'510.7
2017-Oct-17 04:30N 35°21' E 139°43'510.0
2017-Oct-17 04:00N 35°25' E 139°45'5 9.8
2017-Oct-17 03:30N 35°22' E 139°50'1 2.1
2017-Oct-17 03:00N 35°22' E 139°51'0 0.1
2017-Oct-17 02:30N 35°22' E 139°51'0 0.0
2017-Oct-17 02:00N 35°22' E 139°51'0 0.0
2017-Oct-17 01:30N 35°22' E 139°51'0 0.0
2017-Oct-17 01:00N 35°22' E 139°51'0 0.0
2017-Oct-17 00:30N 35°22' E 139°51'0 0.0
2017-Oct-17 00:00N 35°22' E 139°51'0 0.0
2017-Oct-16 23:30N 35°22' E 139°51'0 0.0
2017-Oct-16 23:00N 35°22' E 139°51'0 0.0
2017-Oct-16 22:30N 35°22' E 139°51'0 0.9
2017-Oct-16 22:00N 35°22' E 139°50'1 1.2
2017-Oct-16 21:30N 35°22' E 139°49'0 0.0
2017-Oct-16 21:00N 35°22' E 139°49'0 0.0
2017-Oct-16 20:30N 35°22' E 139°49'0 0.0
2017-Oct-16 20:00N 35°22' E 139°49'0 0.0
2017-Oct-16 19:30N 35°22' E 139°49'0 0.0
2017-Oct-16 19:00N 35°22' E 139°49'0 0.0
2017-Oct-16 18:30N 35°22' E 139°49'0 0.0
2017-Oct-16 18:00N 35°22' E 139°49'0 0.0
2017-Oct-16 17:30N 35°22' E 139°49'0 0.0
2017-Oct-16 17:00N 35°22' E 139°49'0 0.0
2017-Oct-16 16:30N 35°22' E 139°49'0 0.0
2017-Oct-16 16:00N 35°22' E 139°49'0 0.0
2017-Oct-16 15:30N 35°22' E 139°49'0 0.0
2017-Oct-16 15:00N 35°22' E 139°49'0 0.0
2017-Oct-16 14:30N 35°22' E 139°49'0 0.0
2017-Oct-16 13:30N 35°22' E 139°49'0 0.0
2017-Oct-16 13:00N 35°22' E 139°49'0 0.0
2017-Oct-16 12:30N 35°22' E 139°49'0 0.0
2017-Oct-16 12:00N 35°22' E 139°49'0 0.0
2017-Oct-16 11:30N 35°22' E 139°49'0 0.0
2017-Oct-16 11:00N 35°22' E 139°49'0 0.0
2017-Oct-16 10:30N 35°22' E 139°49'0 0.0
2017-Oct-16 10:00N 35°22' E 139°49'0 0.1
2017-Oct-16 09:30N 35°22' E 139°49'0 0.0
2017-Oct-16 09:00N 35°22' E 139°49'0 0.0
2017-Oct-16 08:30N 35°22' E 139°49'3 6.0
2017-Oct-16 08:00N 35°25' E 139°49'612.3
2017-Oct-16 07:30N 35°31' E 139°51'5 0.8
2017-Oct-16 01:08N 35°35' E 139°47'1 7.9
2017-Oct-16 00:59N 35°34' E 139°48'3 6.5
2017-Oct-16 00:30N 35°34' E 139°52'0 0.1
2017-Oct-16 00:00N 35°34' E 139°52'0 0.0
2017-Oct-15 23:30N 35°34' E 139°52'0 0.0
2017-Oct-15 23:00N 35°34' E 139°52'0 0.0
2017-Oct-15 22:30N 35°34' E 139°52'0 0.0
2017-Oct-15 22:00N 35°34' E 139°52'0 0.0
2017-Oct-15 21:30N 35°34' E 139°52'0 0.0
2017-Oct-15 21:00N 35°34' E 139°52'0 0.0
2017-Oct-15 20:30N 35°34' E 139°52'0 0.0
2017-Oct-15 20:00N 35°34' E 139°52'0 0.0
2017-Oct-15 19:30N 35°34' E 139°52'0 0.0
2017-Oct-15 19:00N 35°34' E 139°52'0 0.0
2017-Oct-15 18:30N 35°34' E 139°52'0 0.0
2017-Oct-15 18:00N 35°34' E 139°52'0 0.0
2017-Oct-15 17:30N 35°34' E 139°52'0 0.0
2017-Oct-15 17:00N 35°34' E 139°52'0 0.0
2017-Oct-15 16:30N 35°34' E 139°52'0 0.0
2017-Oct-15 16:00N 35°34' E 139°52'0 0.0
2017-Oct-15 15:30N 35°34' E 139°52'0 0.1
2017-Oct-15 15:00N 35°34' E 139°52'0 0.0
2017-Oct-15 14:00N 35°34' E 139°52'0 0.0
2017-Oct-15 13:30N 35°34' E 139°52'0 0.0
2017-Oct-15 13:00N 35°34' E 139°52'0 0.0
2017-Oct-15 12:30N 35°34' E 139°52'3 6.8
2017-Oct-15 12:00N 35°31' E 139°52'510.2
2017-Oct-15 11:30N 35°26' E 139°49'510.2
2017-Oct-15 11:00N 35°22' E 139°45'5 9.5
2017-Oct-15 10:30N 35°17' E 139°45'5 9.5
2017-Oct-15 10:00N 35°13' E 139°47'510.0
2017-Oct-15 09:30N 35°08' E 139°46'510.6
2017-Oct-15 09:00N 35°03' E 139°44'5 9.7
2017-Oct-15 08:30N 34°58' E 139°43'6 9.0
2017-Oct-15 07:50N 34°53' E 139°47'  
2017-Oct-10 21:08N 35°22' E 139°49'0 0.0
2017-Oct-10 20:47N 35°22' E 139°49'0 0.0
2017-Oct-10 16:10N 35°22' E 139°49'0 0.0
2017-Oct-10 15:56N 35°22' E 139°49'0 0.0
2017-Oct-10 09:51N 35°22' E 139°49'0 0.1
2017-Oct-10 09:29N 35°22' E 139°49'0 0.0
2017-Oct-10 07:29N 35°22' E 139°49'4 8.3
2017-Oct-10 07:00N 35°25' E 139°46'611.1
2017-Oct-10 06:30N 35°28' E 139°40'1 1.9
2017-Oct-10 06:00N 35°28' E 139°39'0 0.0
2017-Oct-10 05:30N 35°28' E 139°39'0 0.0
2017-Oct-10 05:00N 35°28' E 139°39'0 0.0
2017-Oct-10 04:30N 35°28' E 139°39'0 0.0
2017-Oct-10 04:00N 35°28' E 139°39'0 0.0
2017-Oct-10 03:30N 35°28' E 139°39'0 0.0
2017-Oct-10 03:00N 35°28' E 139°39'0 0.0
2017-Oct-10 02:30N 35°28' E 139°39'0 0.0
2017-Oct-10 02:00N 35°28' E 139°39'2 3.8
2017-Oct-10 01:30N 35°27' E 139°41'4 8.0
2017-Oct-10 01:00N 35°24' E 139°45'0 0.0
2017-Oct-10 00:30N 35°24' E 139°45'0 0.0
2017-Oct-10 00:00N 35°24' E 139°45'0 0.0
2017-Oct-09 23:30N 35°24' E 139°45'0 0.1
2017-Oct-09 23:00N 35°24' E 139°45'0 0.1
2017-Oct-09 22:30N 35°24' E 139°45'0 0.0
2017-Oct-09 16:31N 35°24' E 139°45'0 0.0
2017-Oct-09 16:29N 35°24' E 139°45'0 0.0
2017-Oct-09 16:00N 35°24' E 139°45'0 0.0
2017-Oct-09 15:25N 35°24' E 139°45'0 0.0
2017-Oct-09 12:41N 35°24' E 139°45'0 0.0
2017-Oct-09 12:30N 35°24' E 139°45'0 0.0
2017-Oct-09 12:00N 35°24' E 139°45'0 0.0
2017-Oct-09 11:30N 35°24' E 139°45'0 0.0
2017-Oct-09 10:58N 35°24' E 139°45'0 0.0
2017-Oct-09 10:28N 35°24' E 139°45'0 0.0
2017-Oct-09 05:20N 35°24' E 139°45'0 0.0
2017-Oct-09 05:00N 35°24' E 139°45'0 0.0
2017-Oct-09 04:26N 35°24' E 139°45'0 0.0
2017-Oct-09 03:17N 35°24' E 139°45'0 0.0
2017-Oct-09 02:59N 35°24' E 139°45'0 0.0
2017-Oct-09 02:15N 35°24' E 139°45'0 0.0
2017-Oct-09 02:00N 35°24' E 139°45'0 0.0
2017-Oct-09 01:19N 35°24' E 139°45'0 0.0
2017-Oct-09 00:55N 35°24' E 139°45'3 5.1
2017-Oct-09 00:21N 35°22' E 139°43'4 9.8
2017-Oct-08 23:59N 35°18' E 139°44'5 9.9
2017-Oct-08 23:30N 35°14' E 139°47'510.9
2017-Oct-08 23:00N 35°08' E 139°46'611.6
2017-Oct-08 22:30N 35°03' E 139°45'510.4
2017-Oct-08 21:59N 34°57' E 139°44'  

Dump ship's entire track history